Market Rasen, United Kingdom
Current Conditions -  °F | °C
As of 7:20 AM on Saturday 29 Nov 2014 (Local Time) from EGNJ Reporting Station
Haze Haze  
Wind Chill: 50°   Ceiling: 1000
Heat Index: 50°   Visibility: 2.5mi
Dew Point: 48°   Wind: 8mph
Humidity: 94%   Direction: 80°E
Pressure: 29.88"   Gusts: NA
Location:  53.39°N, 0.34°W
Report Text: EGNJ 290720Z 08007KT 4000 HZ BKN010 10/09 Q1012
Loading
Personal Weather Stations






























Interactive Weather Map New forecast layout! Learn more

10-Day Weather Forecast

Advertisements
Track Severe Weather on mobile